Time;durP1;ratioP1;P1;durP2;ratioP2;P2;SDS_P1;SDS_P2;PMS_P1;PMS_P2;Temp;Humidity;BMP_temperature;BMP_pressure;BME280_temperature;BME280_humidity;BME280_pressure;Samples;Min_cycle;Max_cycle;Signal;HPM_P1;HPM_P2
2023/02/24 00:02:03;;;;;;;24.67;4.13;;;9.00;99.90;;;;;;5039776;28;21608;-73
2023/02/24 00:04:34;;;;;;;23.95;4.68;;;9.00;99.90;;;;;;5040554;28;20040;-73
2023/02/24 00:07:01;;;;;;;21.92;5.13;;;8.90;99.90;;;;;;5046493;28;20033;-73
2023/02/24 00:09:28;;;;;;;23.83;4.60;;;8.90;99.90;;;;;;5047110;28;20508;-73
2023/02/24 00:12:07;;;;;;;30.35;5.15;;;8.90;99.90;;;;;;5041466;28;20484;-73
2023/02/24 00:14:36;;;;;;;26.80;5.32;;;9.00;99.90;;;;;;5046472;28;20077;-73
2023/02/24 00:17:03;;;;;;;26.73;4.38;;;9.00;99.90;;;;;;5048596;28;20021;-74
2023/02/24 00:19:33;;;;;;;33.03;5.22;;;9.00;99.90;;;;;;5038898;28;20040;-74
2023/02/24 00:22:00;;;;;;;26.52;4.65;;;9.00;99.90;;;;;;5047405;28;20036;-74
2023/02/24 00:24:26;;;;;;;28.05;4.35;;;9.00;99.90;;;;;;5041124;28;20059;-74
2023/02/24 00:26:53;;;;;;;23.73;4.03;;;9.00;99.90;;;;;;5050463;28;20032;-73
2023/02/24 00:29:19;;;;;;;24.90;5.45;;;8.90;99.90;;;;;;5043795;28;20108;-74
2023/02/24 00:31:45;;;;;;;21.40;4.43;;;8.90;99.90;;;;;;5047851;28;20049;-73
2023/02/24 00:34:11;;;;;;;26.33;5.03;;;8.90;99.90;;;;;;5048718;28;20049;-74
2023/02/24 00:36:38;;;;;;;26.52;5.22;;;8.90;99.90;;;;;;5049335;28;20489;-73
2023/02/24 00:39:09;;;;;;;29.77;5.72;;;8.90;99.90;;;;;;5049049;28;20473;-73
2023/02/24 00:41:42;;;;;;;23.70;4.68;;;8.90;99.90;;;;;;5047592;28;20094;-74
2023/02/24 00:44:11;;;;;;;25.30;5.57;;;8.80;99.90;;;;;;5048173;28;20433;-74
2023/02/24 00:46:41;;;;;;;31.98;5.47;;;8.80;99.90;;;;;;5045726;28;20024;-74
2023/02/24 00:49:15;;;;;;;24.63;4.95;;;8.70;99.90;;;;;;5048094;28;20024;-74
2023/02/24 00:51:43;;;;;;;27.17;4.55;;;8.70;99.90;;;;;;5039768;28;20060;-73
2023/02/24 00:54:13;;;;;;;25.85;4.35;;;8.70;99.90;;;;;;5046317;28;20567;-73
2023/02/24 00:56:43;;;;;;;18.55;4.72;;;8.70;99.90;;;;;;5047411;28;20033;-73
2023/02/24 00:59:10;;;;;;;25.73;4.95;;;8.70;99.90;;;;;;5042185;28;20013;-74
2023/02/24 01:01:36;;;;;;;27.55;5.57;;;8.60;99.90;;;;;;5044629;28;20504;-73
2023/02/24 01:04:04;;;;;;;24.50;4.28;;;8.70;99.90;;;;;;5044119;28;20033;-74
2023/02/24 01:06:31;;;;;;;33.20;5.47;;;8.60;99.90;;;;;;5019596;27;20060;-74
2023/02/24 01:08:56;;;;;;;35.00;5.85;;;8.60;99.90;;;;;;5047043;27;20124;-73
2023/02/24 01:14:13;;;;;;;28.38;5.25;;;8.50;99.90;;;;;;5042598;27;20044;-73
2023/02/24 01:16:40;;;;;;;33.50;6.57;;;8.50;99.90;;;;;;5044955;27;20036;-73
2023/02/24 01:19:07;;;;;;;34.15;5.88;;;8.40;99.90;;;;;;5034321;27;20436;-73
2023/02/24 01:21:33;;;;;;;32.78;4.93;;;8.50;99.90;;;;;;5040644;27;20469;-73
2023/02/24 01:23:59;;;;;;;25.77;5.22;;;8.40;99.90;;;;;;5042426;27;20044;-73
2023/02/24 01:26:25;;;;;;;30.05;4.80;;;8.40;99.90;;;;;;5034831;27;20070;-74
2023/02/24 01:28:52;;;;;;;31.52;5.30;;;8.40;99.90;;;;;;5042423;27;20066;-73
2023/02/24 01:31:19;;;;;;;26.05;6.18;;;8.30;99.90;;;;;;5043610;27;20520;-73
2023/02/24 01:33:46;;;;;;;28.67;4.78;;;8.30;99.90;;;;;;5045794;27;20025;-73
2023/02/24 01:36:15;;;;;;;26.10;4.75;;;8.40;99.90;;;;;;5038902;27;20086;-73
2023/02/24 01:38:42;;;;;;;32.05;5.50;;;8.30;99.90;;;;;;5047740;28;20480;-73
2023/02/24 01:41:15;;;;;;;25.00;4.63;;;8.30;99.90;;;;;;5042731;28;20036;-73
2023/02/24 01:44:08;;;;;;;27.85;5.07;;;8.40;99.90;;;;;;5043500;28;20037;-73
2023/02/24 01:46:40;;;;;;;26.65;4.80;;;8.40;99.90;;;;;;5044266;28;20017;-73
2023/02/24 01:49:36;;;;;;;35.72;6.05;;;8.30;99.90;;;;;;5044053;28;20025;-72
2023/02/24 01:52:16;;;;;;;31.15;5.15;;;8.40;99.90;;;;;;5047857;28;20106;-73
2023/02/24 01:54:45;;;;;;;27.77;4.85;;;8.40;99.90;;;;;;5047940;28;20032;-73
2023/02/24 01:57:15;;;;;;;33.35;5.05;;;8.40;99.90;;;;;;5048848;28;20040;-73
2023/02/24 01:59:42;;;;;;;25.73;5.18;;;8.40;99.90;;;;;;5040560;28;20024;-73
2023/02/24 02:02:09;;;;;;;27.05;6.25;;;8.40;99.90;;;;;;5043040;28;20302;-73
2023/02/24 02:04:49;;;;;;;28.08;4.97;;;8.40;99.90;;;;;;5038288;28;20029;-73
2023/02/24 02:07:18;;;;;;;31.63;5.40;;;8.40;99.90;;;;;;5040522;28;20028;-73
2023/02/24 02:09:46;;;;;;;29.15;5.53;;;8.40;99.90;;;;;;5045373;27;20026;-73
2023/02/24 02:12:12;;;;;;;28.73;5.50;;;8.30;99.90;;;;;;5042550;28;20481;-73
2023/02/24 02:14:43;;;;;;;31.50;6.10;;;8.30;99.90;;;;;;5045312;28;20165;-73
2023/02/24 02:17:35;;;;;;;27.45;5.78;;;8.30;99.90;;;;;;5039670;28;20034;-72
2023/02/24 02:20:35;;;;;;;35.25;6.07;;;8.40;99.90;;;;;;5032183;27;20115;-73
2023/02/24 02:23:16;;;;;;;24.98;5.45;;;8.40;99.90;;;;;;5045927;28;20029;-73
2023/02/24 02:25:53;;;;;;;29.02;5.75;;;8.40;99.90;;;;;;5044188;28;20052;-73
2023/02/24 02:28:56;;;;;;;24.30;4.60;;;8.40;99.90;;;;;;5043620;28;20021;-73
2023/02/24 02:31:54;;;;;;;27.50;5.30;;;8.30;99.90;;;;;;5041500;28;20057;-72
2023/02/24 02:34:52;;;;;;;31.83;5.85;;;8.30;99.90;;;;;;5043593;28;20112;-73
2023/02/24 02:37:43;;;;;;;25.90;4.93;;;8.30;99.90;;;;;;5038654;28;20052;-73
2023/02/24 02:40:18;;;;;;;26.27;5.43;;;8.30;99.90;;;;;;5047862;28;20481;-73
2023/02/24 02:42:57;;;;;;;17.77;4.53;;;8.30;99.90;;;;;;5042633;28;20048;-73
2023/02/24 02:45:38;;;;;;;28.67;4.90;;;8.30;99.90;;;;;;5050144;28;20084;-73
2023/02/24 02:48:33;;;;;;;23.92;5.00;;;8.40;99.90;;;;;;5047397;28;20112;-73
2023/02/24 02:51:15;;;;;;;26.63;5.32;;;8.30;99.90;;;;;;5046259;28;20124;-73
2023/02/24 02:53:46;;;;;;;38.53;5.60;;;8.20;99.90;;;;;;5041537;28;20031;-73
2023/02/24 02:56:14;;;;;;;27.67;4.65;;;8.20;99.90;;;;;;5045831;28;20024;-74
2023/02/24 02:58:44;;;;;;;31.63;6.05;;;8.20;99.90;;;;;;5041814;28;20025;-73
2023/02/24 03:01:15;;;;;;;23.77;3.67;;;8.20;99.90;;;;;;5042314;28;20029;-73
2023/02/24 03:03:49;;;;;;;25.58;5.22;;;8.30;99.90;;;;;;5044157;28;20030;-73
2023/02/24 03:06:18;;;;;;;20.48;4.68;;;8.20;99.90;;;;;;5037755;28;20029;-73
2023/02/24 03:08:52;;;;;;;20.85;4.50;;;8.20;99.90;;;;;;5045499;28;20452;-73
2023/02/24 03:11:19;;;;;;;25.75;5.13;;;8.20;99.90;;;;;;5039851;28;20400;-73
2023/02/24 03:13:48;;;;;;;26.40;4.68;;;8.20;99.90;;;;;;5037421;28;20432;-73
2023/02/24 03:16:16;;;;;;;22.10;4.45;;;8.10;99.90;;;;;;5040212;28;20032;-73
2023/02/24 03:18:52;;;;;;;19.17;4.65;;;8.10;99.90;;;;;;5046109;28;20086;-73
2023/02/24 03:21:37;;;;;;;16.80;4.22;;;8.10;99.90;;;;;;5046276;28;20036;-73
2023/02/24 03:24:05;;;;;;;26.60;4.25;;;8.10;99.90;;;;;;5042939;28;20034;-73
2023/02/24 03:26:51;;;;;;;28.80;5.50;;;8.10;99.90;;;;;;5043472;28;20070;-73
2023/02/24 03:29:43;;;;;;;26.90;5.28;;;8.20;99.90;;;;;;5039509;28;20106;-73
2023/02/24 03:32:24;;;;;;;20.08;4.45;;;8.10;99.90;;;;;;5034454;28;20045;-73
2023/02/24 03:35:07;;;;;;;22.55;4.63;;;8.20;99.90;;;;;;5037829;28;20120;-73
2023/02/24 03:37:35;;;;;;;21.42;5.10;;;8.10;99.90;;;;;;5043403;28;20108;-73
2023/02/24 03:40:10;;;;;;;25.05;4.97;;;8.10;99.90;;;;;;5039441;28;20122;-73
2023/02/24 03:42:38;;;;;;;22.30;4.20;;;8.10;99.90;;;;;;5037469;27;20034;-73
2023/02/24 03:45:05;;;;;;;19.48;4.53;;;8.10;99.90;;;;;;5045886;28;20400;-73
2023/02/24 03:47:31;;;;;;;14.85;4.15;;;8.20;99.90;;;;;;5040441;28;20426;-73
2023/02/24 03:49:57;;;;;;;29.15;4.18;;;8.10;99.90;;;;;;5040802;28;20492;-73
2023/02/24 03:53:11;;;;;;;24.48;4.68;;;8.10;99.90;;;;;;5044339;28;20047;-73
2023/02/24 03:55:42;;;;;;;18.20;3.92;;;8.10;99.90;;;;;;5005890;28;20038;-73
2023/02/24 03:58:36;;;;;;;25.75;5.13;;;8.10;99.90;;;;;;5045151;28;20080;-72
2023/02/24 04:01:09;;;;;;;23.55;4.60;;;8.10;99.90;;;;;;5037648;28;20045;-74
2023/02/24 04:03:49;;;;;;;19.35;4.80;;;8.10;99.90;;;;;;5041543;28;20040;-73
2023/02/24 04:06:40;;;;;;;21.30;4.68;;;8.00;99.90;;;;;;5040898;28;20056;-73
2023/02/24 04:09:44;;;;;;;22.35;4.30;;;8.10;99.90;;;;;;5040515;28;20124;-73
2023/02/24 04:12:25;;;;;;;18.35;4.70;;;8.00;99.90;;;;;;5092509;28;20036;-72
2023/02/24 04:15:07;;;;;;;22.67;4.95;;;8.00;99.90;;;;;;5050761;28;20096;-73
2023/02/24 04:17:39;;;;;;;17.83;5.03;;;8.00;99.90;;;;;;5036585;28;20386;-73
2023/02/24 04:20:15;;;;;;;20.10;5.38;;;8.00;99.90;;;;;;5044120;28;20068;-73
2023/02/24 04:22:44;;;;;;;19.27;5.32;;;8.00;99.90;;;;;;5048243;28;20037;-73
2023/02/24 04:25:12;;;;;;;19.88;6.65;;;8.00;99.90;;;;;;5044334;28;20172;-73
2023/02/24 04:27:42;;;;;;;29.17;7.93;;;8.00;99.90;;;;;;5035663;28;20069;-73
2023/02/24 04:30:10;;;;;;;22.48;7.47;;;8.00;99.90;;;;;;5043958;28;20021;-73
2023/02/24 04:32:37;;;;;;;20.98;6.63;;;8.00;99.90;;;;;;5042593;28;20029;-73
2023/02/24 04:35:08;;;;;;;25.23;5.55;;;8.00;99.90;;;;;;5032742;28;20064;-73
2023/02/24 04:37:35;;;;;;;28.52;5.80;;;7.90;99.90;;;;;;5040443;28;20025;-73
2023/02/24 04:40:09;;;;;;;21.15;4.93;;;7.90;99.90;;;;;;5040569;28;20025;-72
2023/02/24 04:42:35;;;;;;;19.63;5.03;;;7.90;99.90;;;;;;5037393;28;20027;-73
2023/02/24 04:45:08;;;;;;;25.90;5.38;;;7.90;99.90;;;;;;5034648;28;20025;-72
2023/02/24 04:47:36;;;;;;;14.63;3.50;;;7.90;99.90;;;;;;5039733;28;20537;-73
2023/02/24 04:50:05;;;;;;;20.88;3.78;;;7.90;99.90;;;;;;5035585;28;20033;-73
2023/02/24 04:52:31;;;;;;;17.77;3.65;;;7.90;99.90;;;;;;5040907;28;20381;-72
2023/02/24 04:54:57;;;;;;;18.63;3.13;;;7.80;99.90;;;;;;5046809;28;20050;-72
2023/02/24 04:57:23;;;;;;;18.98;2.95;;;7.90;99.90;;;;;;5046084;28;20161;-72
2023/02/24 04:59:52;;;;;;;23.98;3.40;;;7.90;99.90;;;;;;5043298;28;20074;-72
2023/02/24 05:02:19;;;;;;;20.35;3.53;;;7.80;99.90;;;;;;5042076;28;20061;-73
2023/02/24 05:04:48;;;;;;;16.27;3.10;;;7.90;99.90;;;;;;5044201;28;20033;-72
2023/02/24 05:07:15;;;;;;;18.17;3.42;;;7.80;99.90;;;;;;5038523;28;20024;-73
2023/02/24 05:09:41;;;;;;;11.30;3.50;;;7.90;99.90;;;;;;5045532;28;20036;-73
2023/02/24 05:12:08;;;;;;;18.60;3.53;;;7.90;99.90;;;;;;5036481;28;20116;-73
2023/02/24 05:14:34;;;;;;;24.13;3.95;;;7.70;99.90;;;;;;5044755;28;20025;-74
2023/02/24 05:17:00;;;;;;;22.42;3.65;;;7.70;99.90;;;;;;5041916;28;20037;-73
2023/02/24 05:22:16;;;;;;;20.83;3.67;;;7.70;99.90;;;;;;5037443;28;20032;-73
2023/02/24 05:24:42;;;;;;;21.02;3.70;;;7.70;99.90;;;;;;5043791;28;20034;-73
2023/02/24 05:27:08;;;;;;;16.13;3.70;;;7.80;99.90;;;;;;5047195;28;20021;-73
2023/02/24 05:29:35;;;;;;;18.38;3.38;;;7.80;99.90;;;;;;5039663;28;20022;-73
2023/02/24 05:32:03;;;;;;;14.98;3.15;;;7.80;99.90;;;;;;5038696;28;20517;-72
2023/02/24 05:34:31;;;;;;;14.50;3.60;;;7.70;99.90;;;;;;5041629;28;20032;-73
2023/02/24 05:36:58;;;;;;;19.50;3.65;;;7.70;99.90;;;;;;5038050;28;20102;-72
2023/02/24 05:39:27;;;;;;;15.63;3.80;;;7.70;99.90;;;;;;5044101;28;20419;-72
2023/02/24 05:41:53;;;;;;;20.38;3.50;;;7.70;99.90;;;;;;5049631;28;20081;-72
2023/02/24 05:44:21;;;;;;;13.85;3.58;;;7.80;99.90;;;;;;5043421;28;20029;-73
2023/02/24 05:46:49;;;;;;;20.08;4.00;;;7.70;99.90;;;;;;5039229;28;20390;-73
2023/02/24 05:49:19;;;;;;;19.40;4.13;;;7.60;99.90;;;;;;5049479;28;20028;-73
2023/02/24 05:51:53;;;;;;;12.43;3.53;;;7.70;99.90;;;;;;5042595;28;20041;-73
2023/02/24 05:54:20;;;;;;;17.13;4.40;;;7.60;99.90;;;;;;5038854;28;20021;-73
2023/02/24 05:56:45;;;;;;;14.50;3.58;;;7.70;99.90;;;;;;5040555;27;20460;-73
2023/02/24 05:59:16;;;;;;;14.90;3.80;;;7.60;99.90;;;;;;5039883;28;20070;-73
2023/02/24 06:01:46;;;;;;;12.95;4.28;;;7.70;99.90;;;;;;5038044;28;20040;-73
2023/02/24 06:04:19;;;;;;;11.45;3.78;;;7.60;99.90;;;;;;5041458;28;20050;-73
2023/02/24 06:06:51;;;;;;;16.85;3.80;;;7.50;99.90;;;;;;5038880;28;21875;-73
2023/02/24 06:09:18;;;;;;;12.15;4.47;;;7.50;99.90;;;;;;5040208;28;20026;-72
2023/02/24 06:11:44;;;;;;;26.02;4.47;;;7.50;99.90;;;;;;5048345;28;20116;-73
2023/02/24 06:14:11;;;;;;;13.93;4.20;;;7.40;99.90;;;;;;5050609;28;20059;-73
2023/02/24 06:16:39;;;;;;;20.00;4.10;;;7.50;99.90;;;;;;5039122;28;20047;-73
2023/02/24 06:19:06;;;;;;;19.83;4.28;;;7.40;99.90;;;;;;5038364;28;20057;-72
2023/02/24 06:21:34;;;;;;;16.58;4.13;;;7.40;99.90;;;;;;5035131;28;20048;-72
2023/02/24 06:24:00;;;;;;;18.63;3.80;;;7.40;99.90;;;;;;5038627;28;20126;-73
2023/02/24 06:26:28;;;;;;;17.30;3.88;;;7.40;99.90;;;;;;5043887;28;20112;-73
2023/02/24 06:28:56;;;;;;;14.43;3.60;;;7.30;99.90;;;;;;5040377;28;20029;-73
2023/02/24 06:31:22;;;;;;;15.40;3.60;;;7.20;99.90;;;;;;5039325;28;20037;-73
2023/02/24 06:33:47;;;;;;;14.70;4.60;;;7.30;99.90;;;;;;5043548;28;20025;-72
2023/02/24 06:36:13;;;;;;;14.13;3.63;;;7.30;99.90;;;;;;5039184;28;20495;-72
2023/02/24 06:38:40;;;;;;;21.40;4.10;;;7.30;99.90;;;;;;5042960;28;20033;-72
2023/02/24 06:41:09;;;;;;;15.85;4.10;;;7.30;99.90;;;;;;5042323;28;20040;-72
2023/02/24 06:43:43;;;;;;;14.63;4.32;;;7.30;99.90;;;;;;5036567;28;20692;-72
2023/02/24 06:46:11;;;;;;;16.35;3.97;;;7.30;99.90;;;;;;5036725;28;20037;-72
2023/02/24 06:48:36;;;;;;;18.20;3.72;;;7.30;99.90;;;;;;5037396;28;20460;-73
2023/02/24 06:51:09;;;;;;;14.55;3.97;;;7.30;99.90;;;;;;5036779;28;20036;-72
2023/02/24 06:53:41;;;;;;;20.63;4.47;;;7.20;99.90;;;;;;5040599;28;20021;-73
2023/02/24 06:56:13;;;;;;;15.15;3.72;;;7.30;99.90;;;;;;5035515;28;20021;-73
2023/02/24 06:58:44;;;;;;;23.23;4.13;;;7.20;99.90;;;;;;5036587;28;20022;-74
2023/02/24 07:01:14;;;;;;;19.55;3.97;;;7.20;99.90;;;;;;5042614;28;20017;-74
2023/02/24 07:04:26;;;;;;;18.02;5.05;;;7.20;99.90;;;;;;5036250;28;20060;-74
2023/02/24 07:06:28;;;;;;;12.57;3.50;;;7.20;99.90;;;;;;5036237;28;20128;-73
2023/02/24 07:08:57;;;;;;;20.30;5.57;;;7.20;99.90;;;;;;5036495;28;20026;-74
2023/02/24 07:11:23;;;;;;;23.17;4.15;;;7.20;99.90;;;;;;5037917;28;20033;-73
2023/02/24 07:13:49;;;;;;;16.30;4.70;;;7.20;99.90;;;;;;5043693;28;20070;-73
2023/02/24 07:16:23;;;;;;;16.25;4.35;;;7.20;99.90;;;;;;5046732;28;20030;-73
2023/02/24 07:18:57;;;;;;;17.60;4.35;;;7.20;99.90;;;;;;5037734;28;20025;-74
2023/02/24 07:21:25;;;;;;;19.30;4.32;;;7.20;99.90;;;;;;5042478;28;20036;-73
2023/02/24 07:23:55;;;;;;;18.70;5.20;;;7.30;99.90;;;;;;5039149;28;20104;-72
2023/02/24 07:26:23;;;;;;;14.70;5.03;;;7.30;99.90;;;;;;5043226;28;20372;-73
2023/02/24 07:28:49;;;;;;;18.63;5.53;;;7.30;99.90;;;;;;5038934;28;20354;-73
2023/02/24 07:31:17;;;;;;;18.60;4.72;;;7.20;99.90;;;;;;5045538;27;20075;-73
2023/02/24 07:33:44;;;;;;;23.20;4.68;;;7.20;99.90;;;;;;5043955;28;20017;-73
2023/02/24 07:36:13;;;;;;;18.95;4.97;;;7.20;99.90;;;;;;5049797;28;20029;-73
2023/02/24 07:38:41;;;;;;;17.67;4.72;;;7.10;99.90;;;;;;5044001;28;20028;-73
2023/02/24 07:41:11;;;;;;;21.83;5.60;;;7.10;99.90;;;;;;5042153;28;20035;-73
2023/02/24 07:43:38;;;;;;;20.50;5.20;;;7.10;99.90;;;;;;5042621;28;20070;-73
2023/02/24 07:46:10;;;;;;;13.77;4.53;;;7.20;99.90;;;;;;5038193;28;20025;-73
2023/02/24 07:48:37;;;;;;;18.75;6.03;;;7.10;99.90;;;;;;5049384;28;20473;-73
2023/02/24 07:51:07;;;;;;;19.63;5.68;;;7.10;99.90;;;;;;5048367;28;20381;-73
2023/02/24 07:53:34;;;;;;;19.10;5.07;;;7.10;99.90;;;;;;5040169;28;20021;-73
2023/02/24 07:56:05;;;;;;;20.95;5.47;;;7.00;99.90;;;;;;5047867;28;20031;-73
2023/02/24 07:58:33;;;;;;;22.17;5.45;;;6.90;99.90;;;;;;5042154;28;20026;-74
2023/02/24 08:01:07;;;;;;;23.90;4.95;;;7.00;99.90;;;;;;5046383;28;20528;-73
2023/02/24 08:03:40;;;;;;;19.98;5.68;;;6.90;99.90;;;;;;5041057;28;20018;-73
2023/02/24 08:06:14;;;;;;;18.33;4.90;;;6.90;99.90;;;;;;5043456;28;20119;-73
2023/02/24 08:08:56;;;;;;;19.48;5.13;;;7.00;99.90;;;;;;5045731;28;20037;-76
2023/02/24 08:11:41;;;;;;;23.58;6.00;;;7.00;99.90;;;;;;5052128;28;20086;-73
2023/02/24 08:14:12;;;;;;;25.08;6.10;;;7.30;99.90;;;;;;5037653;28;20021;-74
2023/02/24 08:16:42;;;;;;;20.40;5.05;;;7.30;99.90;;;;;;5044052;27;20026;-73
2023/02/24 08:19:13;;;;;;;25.98;6.05;;;7.20;99.90;;;;;;5036026;28;20025;-73
2023/02/24 08:21:46;;;;;;;18.20;5.57;;;7.30;99.90;;;;;;5040192;28;20029;-74
2023/02/24 08:24:16;;;;;;;17.65;5.55;;;7.20;99.90;;;;;;5038067;28;20040;-74
2023/02/24 08:27:04;;;;;;;18.42;5.30;;;7.20;99.90;;;;;;5045632;28;20104;-71
2023/02/24 08:32:22;;;;;;;26.10;5.90;;;7.10;99.90;;;;;;5043791;28;20110;-73
2023/02/24 08:34:49;;;;;;;22.80;5.60;;;7.10;99.90;;;;;;5041804;28;20025;-72
2023/02/24 08:37:15;;;;;;;15.70;4.97;;;7.20;99.90;;;;;;5042342;28;20047;-73
2023/02/24 08:39:42;;;;;;;17.30;4.95;;;7.20;99.90;;;;;;5038727;28;20056;-72
2023/02/24 08:42:13;;;;;;;25.58;6.05;;;7.30;99.90;;;;;;5043124;28;20028;-73
2023/02/24 08:44:39;;;;;;;16.98;4.70;;;7.30;99.90;;;;;;5039935;28;20053;-73
2023/02/24 08:47:06;;;;;;;21.55;5.65;;;7.40;99.90;;;;;;5041006;28;20116;-72
2023/02/24 08:49:32;;;;;;;20.85;5.50;;;7.40;99.90;;;;;;5040742;28;20631;-73
2023/02/24 08:52:01;;;;;;;21.40;5.20;;;7.40;99.90;;;;;;5041035;28;20045;-72
2023/02/24 08:54:30;;;;;;;20.45;5.75;;;7.40;99.90;;;;;;5044738;28;20021;-73
2023/02/24 08:57:06;;;;;;;28.60;6.22;;;7.40;99.90;;;;;;5044817;28;20029;-73
2023/02/24 08:59:36;;;;;;;20.67;5.57;;;7.40;99.90;;;;;;5041388;28;20029;-73
2023/02/24 09:02:39;;;;;;;29.60;5.18;;;7.30;99.90;;;;;;5043872;28;20493;-73
2023/02/24 09:05:06;;;;;;;25.63;5.53;;;7.40;99.90;;;;;;5041544;28;20025;-73
2023/02/24 09:07:35;;;;;;;16.42;4.40;;;7.50;99.90;;;;;;5042784;28;20445;-74
2023/02/24 09:10:18;;;;;;;16.30;5.30;;;7.50;99.90;;;;;;5038497;28;20029;-75
2023/02/24 09:12:43;;;;;;;17.65;4.78;;;7.60;99.90;;;;;;5047066;28;20431;-71
2023/02/24 09:15:14;;;;;;;18.80;4.90;;;7.50;99.90;;;;;;5040538;28;20066;-74
2023/02/24 09:23:06;;;;;;;16.70;4.57;;;7.50;99.90;;;;;;5043078;28;20040;-75
2023/02/24 09:25:39;;;;;;;22.73;4.70;;;7.60;99.90;;;;;;5043237;28;20021;-75
2023/02/24 09:28:15;;;;;;;22.88;5.18;;;7.60;99.90;;;;;;5036147;28;20030;-74
2023/02/24 09:30:52;;;;;;;21.10;3.95;;;7.70;99.90;;;;;;5043316;28;20045;-75
2023/02/24 09:33:26;;;;;;;26.17;4.47;;;7.80;99.90;;;;;;5041870;28;20013;-74
2023/02/24 09:35:59;;;;;;;20.15;4.07;;;7.80;99.90;;;;;;5040173;28;20385;-76
2023/02/24 09:41:30;;;;;;;18.05;4.32;;;7.80;99.90;;;;;;5045367;28;20044;-74
2023/02/24 09:44:02;;;;;;;24.00;4.97;;;7.80;99.90;;;;;;5036183;28;20029;-74
2023/02/24 09:46:38;;;;;;;19.83;3.72;;;8.00;99.90;;;;;;5040793;28;20025;-74
2023/02/24 09:49:17;;;;;;;19.50;4.28;;;8.00;99.90;;;;;;5035470;28;20499;-74
2023/02/24 09:51:43;;;;;;;19.92;4.60;;;8.00;99.90;;;;;;5041651;28;20394;-73
2023/02/24 09:54:18;;;;;;;13.85;3.70;;;8.20;99.90;;;;;;5046358;28;20021;-73
2023/02/24 09:56:59;;;;;;;20.65;4.35;;;8.20;99.90;;;;;;5039782;28;20096;-73
2023/02/24 09:59:37;;;;;;;23.33;4.53;;;8.10;99.90;;;;;;5043379;28;20093;-75
2023/02/24 10:02:42;;;;;;;15.38;4.13;;;8.10;99.90;;;;;;5038200;28;20100;-75
2023/02/24 10:05:26;;;;;;;20.85;4.30;;;8.20;99.90;;;;;;5046092;28;20122;-73
2023/02/24 10:07:55;;;;;;;15.63;3.78;;;8.20;99.90;;;;;;5040595;28;20043;-73
2023/02/24 10:10:28;;;;;;;15.05;3.90;;;8.10;99.90;;;;;;5045082;28;20108;-74
2023/02/24 10:13:29;;;;;;;17.80;4.00;;;8.10;99.90;;;;;;5042891;28;20374;-74
2023/02/24 10:18:27;;;;;;;19.63;4.50;;;8.10;99.90;;;;;;5043439;28;20112;-72
2023/02/24 10:21:15;;;;;;;10.63;3.47;;;8.10;99.90;;;;;;5043908;28;20082;-75
2023/02/24 10:23:55;;;;;;;22.42;4.20;;;8.10;99.90;;;;;;5037675;28;20299;-75
2023/02/24 10:26:33;;;;;;;14.57;3.92;;;8.10;99.90;;;;;;5043609;28;20036;-74
2023/02/24 10:29:07;;;;;;;15.07;3.33;;;8.00;99.90;;;;;;5043262;28;20457;-71
2023/02/24 10:31:44;;;;;;;15.05;3.85;;;8.10;99.90;;;;;;5040145;28;20083;-72
2023/02/24 10:34:25;;;;;;;21.95;4.70;;;8.10;99.90;;;;;;5041883;28;20053;-76
2023/02/24 10:36:56;;;;;;;14.13;3.67;;;8.00;99.90;;;;;;5041916;28;20053;-73
2023/02/24 10:39:32;;;;;;;13.57;4.10;;;8.00;99.90;;;;;;5044312;28;20056;-74
2023/02/24 10:42:14;;;;;;;18.65;3.78;;;7.90;99.90;;;;;;5038826;28;20029;-75
2023/02/24 10:44:50;;;;;;;16.85;5.10;;;7.90;99.90;;;;;;5031072;28;20544;-74
2023/02/24 10:47:19;;;;;;;12.57;4.75;;;8.00;99.90;;;;;;5039150;28;20106;-74
2023/02/24 10:49:57;;;;;;;15.73;4.10;;;8.10;99.90;;;;;;5045474;28;20021;-72
2023/02/24 10:53:09;;;;;;;16.25;4.15;;;8.00;99.90;;;;;;5046674;28;20045;-75
2023/02/24 10:55:52;;;;;;;17.23;4.57;;;8.00;99.90;;;;;;5037688;28;20026;-72
2023/02/24 10:58:36;;;;;;;16.48;4.32;;;8.00;99.90;;;;;;5043487;28;20062;-73
2023/02/24 11:01:39;;;;;;;19.05;4.38;;;8.20;99.90;;;;;;5043468;28;20032;-73
2023/02/24 11:07:08;;;;;;;11.70;3.75;;;8.20;99.90;;;;;;5046286;28;20468;-73
2023/02/24 11:09:42;;;;;;;21.27;4.25;;;8.30;99.90;;;;;;5047820;28;20033;-73
2023/02/24 11:17:59;;;;;;;17.42;4.70;;;8.30;99.90;;;;;;5045342;28;20047;-74
2023/02/24 11:20:43;;;;;;;12.93;4.13;;;8.40;99.90;;;;;;5040650;28;20113;-73
2023/02/24 11:23:14;;;;;;;13.35;4.18;;;8.50;99.90;;;;;;5044178;28;20498;-74
2023/02/24 11:25:44;;;;;;;19.00;4.50;;;8.50;99.90;;;;;;5048271;28;20386;-71
2023/02/24 11:28:22;;;;;;;16.23;4.40;;;8.40;99.90;;;;;;5039236;28;20104;-74
2023/02/24 11:31:15;;;;;;;18.85;4.35;;;8.50;99.90;;;;;;5044994;28;20108;-73
2023/02/24 11:33:59;;;;;;;17.58;4.45;;;8.40;99.90;;;;;;5050084;28;20021;-73
2023/02/24 11:36:38;;;;;;;19.80;4.93;;;8.50;99.90;;;;;;5009125;27;20036;-73
2023/02/24 11:39:03;;;;;;;16.15;4.35;;;8.50;99.90;;;;;;5041094;27;20377;-73
2023/02/24 11:41:39;;;;;;;17.20;6.20;;;8.60;99.90;;;;;;5041419;27;20029;-72
2023/02/24 11:44:33;;;;;;;16.75;5.13;;;8.50;99.90;;;;;;5041027;27;20066;-73
2023/02/24 11:47:06;;;;;;;11.75;4.00;;;8.50;99.90;;;;;;5043106;27;20129;-72
2023/02/24 11:49:54;;;;;;;18.38;4.25;;;8.40;99.90;;;;;;5041519;27;20108;-72
2023/02/24 11:52:32;;;;;;;17.08;4.40;;;8.30;99.90;;;;;;5038523;27;20516;-75
2023/02/24 11:54:59;;;;;;;12.15;4.32;;;8.30;99.90;;;;;;5041523;27;20025;-73
2023/02/24 11:57:47;;;;;;;14.63;4.20;;;8.30;99.90;;;;;;5038046;27;20018;-74
2023/02/24 12:00:18;;;;;;;14.13;4.65;;;8.20;99.90;;;;;;5041236;27;20017;-74
2023/02/24 12:02:52;;;;;;;17.98;5.28;;;8.20;99.90;;;;;;5042459;27;20093;-74
2023/02/24 12:05:25;;;;;;;14.57;5.32;;;8.30;99.90;;;;;;5044753;27;20380;-76
2023/02/24 12:07:52;;;;;;;;;;;8.30;99.90;;;;;;5043291;27;20017;-73
2023/02/24 12:10:27;;;;;;;13.48;5.28;;;8.30;99.90;;;;;;5044292;27;19917;-75
2023/02/24 12:13:10;;;;;;;13.93;4.70;;;8.40;99.90;;;;;;5039705;27;20045;-75
2023/02/24 12:15:58;;;;;;;11.70;4.90;;;8.40;99.90;;;;;;5042176;27;20022;-74
2023/02/24 12:18:28;;;;;;;16.63;5.38;;;8.30;99.90;;;;;;5043243;27;20029;-75
2023/02/24 12:21:04;;;;;;;18.38;6.45;;;8.40;99.90;;;;;;5044664;27;20458;-74
2023/02/24 12:23:39;;;;;;;22.67;7.70;;;8.40;99.90;;;;;;5049034;27;20097;-75
2023/02/24 12:26:23;;;;;;;23.27;6.70;;;8.40;99.90;;;;;;5040952;27;20025;-72
2023/02/24 12:29:03;;;;;;;12.23;5.07;;;8.40;99.90;;;;;;5040595;27;20025;-76
2023/02/24 12:31:55;;;;;;;19.95;6.22;;;8.40;99.90;;;;;;5043905;27;20037;-76
2023/02/24 12:34:49;;;;;;;17.55;6.45;;;8.20;99.90;;;;;;5045702;27;20021;-76
2023/02/24 12:37:33;;;;;;;10.93;6.32;;;8.20;99.90;;;;;;5043546;27;20377;-76
2023/02/24 12:40:26;;;;;;;20.27;7.07;;;8.30;99.90;;;;;;5046132;27;20410;-76
2023/02/24 12:43:16;;;;;;;15.50;8.07;;;8.30;99.90;;;;;;5046595;27;20563;-74
2023/02/24 12:46:11;;;;;;;17.98;9.13;;;8.30;99.90;;;;;;5048269;27;20029;-75
2023/02/24 12:48:40;;;;;;;18.20;8.45;;;8.40;99.90;;;;;;5036495;27;20041;-72
2023/02/24 12:51:08;;;;;;;22.95;9.48;;;8.40;99.90;;;;;;5042867;27;20053;-75
2023/02/24 12:53:57;;;;;;;20.20;10.07;;;8.20;99.90;;;;;;5045730;27;20290;-75
2023/02/24 12:56:26;;;;;;;26.50;10.25;;;8.30;99.90;;;;;;5041772;27;20037;-75
2023/02/24 12:58:58;;;;;;;18.63;12.38;;;8.30;99.90;;;;;;5044368;27;20052;-74
2023/02/24 13:01:31;;;;;;;25.90;11.45;;;8.30;99.90;;;;;;5043124;27;20017;-74
2023/02/24 13:04:09;;;;;;;29.30;12.30;;;8.20;99.90;;;;;;5048613;27;20037;-74
2023/02/24 13:06:50;;;;;;;24.45;12.27;;;8.30;99.90;;;;;;5043541;27;20075;-73
2023/02/24 13:09:36;;;;;;;29.73;13.68;;;8.30;99.90;;;;;;5044247;27;20025;-73
2023/02/24 13:12:18;;;;;;;29.08;15.60;;;8.20;99.90;;;;;;5039527;27;20037;-74
2023/02/24 13:14:44;;;;;;;24.70;15.68;;;8.20;99.90;;;;;;5041177;27;20074;-70
2023/02/24 13:17:10;;;;;;;35.33;16.52;;;8.20;99.90;;;;;;5037353;27;20431;-71
2023/02/24 13:19:37;;;;;;;28.55;16.17;;;8.10;99.90;;;;;;5049552;27;20025;-71
2023/02/24 13:22:05;;;;;;;24.20;16.42;;;8.00;99.90;;;;;;5045480;27;20037;-71
2023/02/24 13:24:32;;;;;;;33.75;16.02;;;8.10;99.90;;;;;;5047093;27;20029;-71
2023/02/24 13:27:24;;;;;;;35.65;17.27;;;8.00;99.90;;;;;;5040936;27;20465;-71
2023/02/24 13:29:54;;;;;;;30.90;17.67;;;8.20;99.90;;;;;;5037884;27;20061;-76
2023/02/24 13:32:34;;;;;;;36.08;17.60;;;8.20;99.90;;;;;;5044516;27;20878;-75
2023/02/24 13:35:19;;;;;;;39.72;19.38;;;8.30;99.90;;;;;;5039986;27;20235;-75
2023/02/24 13:37:47;;;;;;;36.92;19.35;;;8.30;99.90;;;;;;5051336;27;20140;-74
2023/02/24 13:40:21;;;;;;;32.67;19.92;;;8.40;99.90;;;;;;5041022;27;20021;-71
2023/02/24 13:42:58;;;;;;;31.58;18.90;;;8.40;99.90;;;;;;5045591;27;20029;-72
2023/02/24 13:45:29;;;;;;;44.78;23.30;;;8.40;99.90;;;;;;5041705;27;20033;-76
2023/02/24 13:48:11;;;;;;;41.42;20.55;;;8.40;99.90;;;;;;5039042;27;20025;-75